This is the latest recevied weather packets stored in our database for station/object IK2ILW-6. If no packets are shown the sender has not sent any weather packets the latest 1 day(s).
| Time | Temp. | Humidity | Pressure | Rain* | Wind** | Luminosity | Snow |
|---|---|---|---|---|---|---|---|
| 1778005895 | 3.89° C | 96% | 1013 hPa | 2.03 mm | 0.89 m/s, 104° | 0 W/m² | - |
| 1778005599 | 3.89° C | 96% | 1013 hPa | 1.02 mm | 0.89 m/s, 149° | 0 W/m² | - |
| 1778005283 | 3.89° C | 96% | 1013 hPa | 1.02 mm | 0.89 m/s, 157° | 0 W/m² | - |
| 1778004988 | 3.89° C | 96% | 1013 hPa | 1.02 mm | 0.45 m/s, 159° | 0 W/m² | - |
| 1778004691 | 3.89° C | 96% | 1013 hPa | 1.02 mm | 0.89 m/s, 125° | 5 W/m² | - |
| 1778004101 | 3.89° C | 96% | 1013 hPa | 1.02 mm | 0.89 m/s, 153° | 9 W/m² | - |
| 1778003787 | 3.89° C | 96% | 1012.9 hPa | 1.02 mm | 1.79 m/s, 134° | 9 W/m² | - |
| 1778003491 | 3.89° C | 96% | 1012.8 hPa | 0 mm | 0.89 m/s, 138° | 9 W/m² | - |
| 1778003193 | 3.89° C | 96% | 1012.9 hPa | 0 mm | 0.89 m/s, 138° | 9 W/m² | - |
| 1778002883 | 3.89° C | 96% | 1012.8 hPa | 0 mm | 1.79 m/s, 135° | 9 W/m² | - |
| 1778002588 | 3.89° C | 96% | 1012.9 hPa | 1.02 mm | 1.34 m/s, 89° | 11 W/m² | - |
| 1778002294 | 3.89° C | 96% | 1013 hPa | 1.02 mm | 1.34 m/s, 126° | 14 W/m² | - |
| 1778001995 | 3.89° C | 96% | 1012.8 hPa | 1.02 mm | 2.24 m/s, 125° | 16 W/m² | - |
| 1778001700 | 3.89° C | 96% | 1012.9 hPa | 1.02 mm | 1.34 m/s, 134° | 18 W/m² | - |
| 1778001386 | 3.89° C | 96% | 1012.8 hPa | 1.02 mm | 1.34 m/s, 141° | 19 W/m² | - |
| 1778001090 | 3.89° C | 96% | 1012.8 hPa | 1.02 mm | 1.34 m/s, 123° | 21 W/m² | - |
| 1778000795 | 3.89° C | 96% | 1012.8 hPa | 1.02 mm | 0.45 m/s, 157° | 26 W/m² | - |
| 1778000499 | 3.89° C | 96% | 1012.8 hPa | 1.02 mm | 1.34 m/s, 20° | 42 W/m² | - |
| 1778000184 | 3.89° C | 96% | 1012.9 hPa | 1.02 mm | 1.34 m/s, 92° | 42 W/m² | - |
| 1777999888 | 3.89° C | 96% | 1012.9 hPa | 1.02 mm | 1.79 m/s, 112° | 35 W/m² | - |
| 1777999597 | 3.89° C | 96% | 1012.9 hPa | 1.02 mm | 1.34 m/s, 125° | 42 W/m² | - |
| 1777999302 | 3.89° C | 96% | 1013 hPa | 0 mm | 0.89 m/s, 117° | 40 W/m² | - |
| 1777998986 | 3.89° C | 96% | 1013 hPa | 0 mm | 2.24 m/s, 135° | 35 W/m² | - |
| 1777998691 | 3.89° C | 96% | 1013 hPa | 0 mm | 1.79 m/s, 134° | 37 W/m² | - |
| 1777998395 | 3.89° C | 96% | 1013 hPa | 0 mm | 2.24 m/s, 119° | 44 W/m² | - |
* Rain latest hour (hover to see other rain measurements)
** Current wind speed in m/s (hover to see current wind gust speed)